sensor_id;sensor_type;location;lat;lon;timestamp;pressure;altitude;pressure_sealevel;temperature;humidity
20955;BME280;10636;19.390;-99.256;2023-02-02T00:01:39;77821.09;;;25.16;22.85
20955;BME280;10636;19.390;-99.256;2023-02-02T00:04:08;77817.72;;;25.15;22.95
20955;BME280;10636;19.390;-99.256;2023-02-02T00:06:42;77822.38;;;25.15;23.52
20955;BME280;10636;19.390;-99.256;2023-02-02T00:09:13;77825.75;;;25.15;23.23
20955;BME280;10636;19.390;-99.256;2023-02-02T00:11:44;77833.66;;;25.11;23.68
20955;BME280;10636;19.390;-99.256;2023-02-02T00:14:13;77828.16;;;25.07;23.25
20955;BME280;10636;19.390;-99.256;2023-02-02T00:16:43;77831.44;;;25.06;23.98
20955;BME280;10636;19.390;-99.256;2023-02-02T00:19:14;77816.13;;;24.90;23.61
20955;BME280;10636;19.390;-99.256;2023-02-02T00:21:43;77845.44;;;25.04;23.64
20955;BME280;10636;19.390;-99.256;2023-02-02T00:24:13;77833.97;;;25.01;23.83
20955;BME280;10636;19.390;-99.256;2023-02-02T00:26:46;77831.28;;;25.01;23.75
20955;BME280;10636;19.390;-99.256;2023-02-02T00:29:16;77839.28;;;24.99;23.87
20955;BME280;10636;19.390;-99.256;2023-02-02T00:31:45;77847.91;;;24.98;24.12
20955;BME280;10636;19.390;-99.256;2023-02-02T00:34:15;77845.09;;;24.94;24.04
20955;BME280;10636;19.390;-99.256;2023-02-02T00:36:47;77849.16;;;24.95;24.56
20955;BME280;10636;19.390;-99.256;2023-02-02T00:39:18;77852.44;;;24.93;24.49
20955;BME280;10636;19.390;-99.256;2023-02-02T00:41:49;77853.06;;;24.92;24.77
20955;BME280;10636;19.390;-99.256;2023-02-02T00:44:17;77858.38;;;24.90;24.68
20955;BME280;10636;19.390;-99.256;2023-02-02T00:47:03;77852.84;;;24.86;24.64
20955;BME280;10636;19.390;-99.256;2023-02-02T00:49:32;77859.59;;;24.87;24.78
20955;BME280;10636;19.390;-99.256;2023-02-02T00:52:00;77868.94;;;24.86;25.13
20955;BME280;10636;19.390;-99.256;2023-02-02T00:54:29;77871.56;;;24.84;24.75
20955;BME280;10636;19.390;-99.256;2023-02-02T00:56:59;77879.47;;;24.80;25.54
20955;BME280;10636;19.390;-99.256;2023-02-02T00:59:28;77888.09;;;24.78;25.52
20955;BME280;10636;19.390;-99.256;2023-02-02T01:01:56;77892.78;;;24.77;25.08
20955;BME280;10636;19.390;-99.256;2023-02-02T01:04:25;77898.00;;;24.73;25.25
20955;BME280;10636;19.390;-99.256;2023-02-02T01:06:53;77900.69;;;24.73;25.51
20955;BME280;10636;19.390;-99.256;2023-02-02T01:09:22;77903.97;;;24.72;25.39
20955;BME280;10636;19.390;-99.256;2023-02-02T01:11:51;77909.88;;;24.68;25.22
20955;BME280;10636;19.390;-99.256;2023-02-02T01:14:21;77904.38;;;24.64;25.36
20955;BME280;10636;19.390;-99.256;2023-02-02T01:16:50;77912.31;;;24.62;25.40
20955;BME280;10636;19.390;-99.256;2023-02-02T01:19:19;77909.50;;;24.58;26.15
20955;BME280;10636;19.390;-99.256;2023-02-02T01:21:47;77906.03;;;24.56;25.47
20955;BME280;10636;19.390;-99.256;2023-02-02T01:24:16;77916.94;;;24.60;25.78
20955;BME280;10636;19.390;-99.256;2023-02-02T01:26:45;77927.03;;;24.61;26.16
20955;BME280;10636;19.390;-99.256;2023-02-02T01:29:13;77933.78;;;24.62;25.92
20955;BME280;10636;19.390;-99.256;2023-02-02T01:31:44;77932.50;;;24.63;26.06
20955;BME280;10636;19.390;-99.256;2023-02-02T01:34:13;77935.25;;;24.65;26.45
20955;BME280;10636;19.390;-99.256;2023-02-02T01:36:42;77940.66;;;24.67;26.11
20955;BME280;10636;19.390;-99.256;2023-02-02T01:39:10;77952.78;;;24.68;26.21
20955;BME280;10636;19.390;-99.256;2023-02-02T01:41:42;77956.06;;;24.67;26.47
20955;BME280;10636;19.390;-99.256;2023-02-02T01:47:17;77961.44;;;24.67;26.58
20955;BME280;10636;19.390;-99.256;2023-02-02T01:49:47;77970.09;;;24.65;26.46
20955;BME280;10636;19.390;-99.256;2023-02-02T01:52:17;77964.72;;;24.65;26.71
20955;BME280;10636;19.390;-99.256;2023-02-02T01:54:49;77986.19;;;24.65;26.37
20955;BME280;10636;19.390;-99.256;2023-02-02T01:57:22;77988.88;;;24.65;26.78
20955;BME280;10636;19.390;-99.256;2023-02-02T01:59:55;77987.56;;;24.66;26.92
20955;BME280;10636;19.390;-99.256;2023-02-02T02:02:31;77991.56;;;24.65;26.64
20955;BME280;10636;19.390;-99.256;2023-02-02T02:05:17;77991.38;;;24.61;26.64
20955;BME280;10636;19.390;-99.256;2023-02-02T02:07:49;77999.53;;;24.63;26.87
20955;BME280;10636;19.390;-99.256;2023-02-02T02:10:20;78012.94;;;24.63;27.20
20955;BME280;10636;19.390;-99.256;2023-02-02T02:12:49;78020.97;;;24.63;27.33
20955;BME280;10636;19.390;-99.256;2023-02-02T02:15:19;78017.59;;;24.63;26.72
20955;BME280;10636;19.390;-99.256;2023-02-02T02:18:15;78021.50;;;24.60;26.80
20955;BME280;10636;19.390;-99.256;2023-02-02T02:21:23;78024.13;;;24.58;26.89
20955;BME280;10636;19.390;-99.256;2023-02-02T02:24:39;78029.53;;;24.60;27.03
20955;BME280;10636;19.390;-99.256;2023-02-02T02:28:20;78026.53;;;24.51;27.72
20955;BME280;10636;19.390;-99.256;2023-02-02T02:34:06;78046.09;;;24.54;27.85
20955;BME280;10636;19.390;-99.256;2023-02-02T02:36:50;78047.47;;;24.55;27.74
20955;BME280;10636;19.390;-99.256;2023-02-02T02:39:26;78033.47;;;24.41;28.57
20955;BME280;10636;19.390;-99.256;2023-02-02T02:42:01;78049.44;;;24.55;27.65
20955;BME280;10636;19.390;-99.256;2023-02-02T02:44:39;78056.13;;;24.54;27.93
20955;BME280;10636;19.390;-99.256;2023-02-02T02:47:26;78054.75;;;24.52;27.99
20955;BME280;10636;19.390;-99.256;2023-02-02T02:49:58;78056.81;;;24.54;28.14
20955;BME280;10636;19.390;-99.256;2023-02-02T02:52:26;78057.44;;;24.52;27.90
20955;BME280;10636;19.390;-99.256;2023-02-02T02:54:56;78059.41;;;24.52;27.81
20955;BME280;10636;19.390;-99.256;2023-02-02T02:57:45;78069.44;;;24.51;28.35
20955;BME280;10636;19.390;-99.256;2023-02-02T03:00:41;78063.38;;;24.51;28.60
20955;BME280;10636;19.390;-99.256;2023-02-02T03:03:21;78067.19;;;24.46;28.39
20955;BME280;10636;19.390;-99.256;2023-02-02T03:06:07;78070.03;;;24.50;28.53
20955;BME280;10636;19.390;-99.256;2023-02-02T03:08:48;78076.88;;;24.53;28.51
20955;BME280;10636;19.390;-99.256;2023-02-02T03:11:29;78079.63;;;24.55;28.00
20955;BME280;10636;19.390;-99.256;2023-02-02T03:14:04;78086.31;;;24.54;28.83
20955;BME280;10636;19.390;-99.256;2023-02-02T03:16:38;78075.50;;;24.52;28.50
20955;BME280;10636;19.390;-99.256;2023-02-02T03:19:07;78087.59;;;24.53;28.40
20955;BME280;10636;19.390;-99.256;2023-02-02T03:21:38;78086.22;;;24.52;28.23
20955;BME280;10636;19.390;-99.256;2023-02-02T03:24:07;78080.88;;;24.52;28.81
20955;BME280;10636;19.390;-99.256;2023-02-02T03:26:35;78076.53;;;24.45;28.44
20955;BME280;10636;19.390;-99.256;2023-02-02T03:29:06;78090.19;;;24.51;28.49
20955;BME280;10636;19.390;-99.256;2023-02-02T03:31:34;78092.72;;;24.47;28.46
20955;BME280;10636;19.390;-99.256;2023-02-02T03:34:03;78098.91;;;24.51;28.39
20955;BME280;10636;19.390;-99.256;2023-02-02T03:36:32;78097.47;;;24.48;28.94
20955;BME280;10636;19.390;-99.256;2023-02-02T03:39:02;78101.34;;;24.45;28.82
20955;BME280;10636;19.390;-99.256;2023-02-02T03:41:31;78101.28;;;24.43;29.33
20955;BME280;10636;19.390;-99.256;2023-02-02T03:44:02;78105.25;;;24.42;29.10
20955;BME280;10636;19.390;-99.256;2023-02-02T03:46:31;78100.66;;;24.45;28.94
20955;BME280;10636;19.390;-99.256;2023-02-02T03:49:00;78096.59;;;24.44;28.60
20955;BME280;10636;19.390;-99.256;2023-02-02T03:51:29;78095.31;;;24.45;29.19
20955;BME280;10636;19.390;-99.256;2023-02-02T03:53:57;78099.34;;;24.46;29.38
20955;BME280;10636;19.390;-99.256;2023-02-02T03:56:28;78108.03;;;24.44;29.15
20955;BME280;10636;19.390;-99.256;2023-02-02T03:58:56;78101.91;;;24.42;28.75
20955;BME280;10636;19.390;-99.256;2023-02-02T04:01:27;78101.19;;;24.41;29.17
20955;BME280;10636;19.390;-99.256;2023-02-02T04:03:57;78105.25;;;24.42;28.73
20955;BME280;10636;19.390;-99.256;2023-02-02T04:06:26;78110.53;;;24.40;29.41
20955;BME280;10636;19.390;-99.256;2023-02-02T04:08:55;78116.50;;;24.39;29.38
20955;BME280;10636;19.390;-99.256;2023-02-02T04:11:23;78121.84;;;24.39;29.54
20955;BME280;10636;19.390;-99.256;2023-02-02T04:13:53;78109.47;;;24.32;29.38
20955;BME280;10636;19.390;-99.256;2023-02-02T04:16:22;78122.97;;;24.34;29.14
20955;BME280;10636;19.390;-99.256;2023-02-02T04:18:51;78126.94;;;24.33;29.62
20955;BME280;10636;19.390;-99.256;2023-02-02T04:21:19;78127.63;;;24.33;29.29
20955;BME280;10636;19.390;-99.256;2023-02-02T04:23:48;78121.47;;;24.31;29.08
20955;BME280;10636;19.390;-99.256;2023-02-02T04:26:16;78126.84;;;24.31;29.55
20955;BME280;10636;19.390;-99.256;2023-02-02T04:28:45;78134.19;;;24.30;29.00
20955;BME280;10636;19.390;-99.256;2023-02-02T04:31:15;78131.44;;;24.28;29.58
20955;BME280;10636;19.390;-99.256;2023-02-02T04:33:44;78133.44;;;24.27;29.34
20955;BME280;10636;19.390;-99.256;2023-02-02T04:36:12;78137.50;;;24.29;29.44
20955;BME280;10636;19.390;-99.256;2023-02-02T04:38:41;78134.81;;;24.29;29.47
20955;BME280;10636;19.390;-99.256;2023-02-02T04:41:13;78134.81;;;24.29;29.61
20955;BME280;10636;19.390;-99.256;2023-02-02T04:43:44;78133.50;;;24.30;29.40
20955;BME280;10636;19.390;-99.256;2023-02-02T04:46:14;78130.81;;;24.30;29.01
20955;BME280;10636;19.390;-99.256;2023-02-02T04:48:43;78133.44;;;24.27;28.89
20955;BME280;10636;19.390;-99.256;2023-02-02T04:51:13;78137.41;;;24.26;29.21
20955;BME280;10636;19.390;-99.256;2023-02-02T04:53:44;78130.56;;;24.23;29.18
20955;BME280;10636;19.390;-99.256;2023-02-02T04:56:14;78133.94;;;24.24;29.34
20955;BME280;10636;19.390;-99.256;2023-02-02T04:58:44;78138.63;;;24.23;29.70
20955;BME280;10636;19.390;-99.256;2023-02-02T05:01:17;78132.91;;;24.15;29.20
20955;BME280;10636;19.390;-99.256;2023-02-02T05:03:46;78135.06;;;24.19;29.51
20955;BME280;10636;19.390;-99.256;2023-02-02T05:06:16;78141.81;;;24.20;29.65
20955;BME280;10636;19.390;-99.256;2023-02-02T05:08:44;78139.84;;;24.20;29.64
20955;BME280;10636;19.390;-99.256;2023-02-02T05:11:15;78129.00;;;24.18;29.68
20955;BME280;10636;19.390;-99.256;2023-02-02T05:13:45;78142.41;;;24.18;29.04
20955;BME280;10636;19.390;-99.256;2023-02-02T05:16:14;78150.38;;;24.16;29.62
20955;BME280;10636;19.390;-99.256;2023-02-02T05:18:48;78142.34;;;24.16;29.16
20955;BME280;10636;19.390;-99.256;2023-02-02T05:21:16;78142.34;;;24.16;29.72
20955;BME280;10636;19.390;-99.256;2023-02-02T05:23:46;78132.63;;;24.09;29.45
20955;BME280;10636;19.390;-99.256;2023-02-02T05:26:16;78144.84;;;24.12;29.45
20955;BME280;10636;19.390;-99.256;2023-02-02T05:28:45;78147.44;;;24.10;29.52
20955;BME280;10636;19.390;-99.256;2023-02-02T05:31:14;78143.28;;;24.07;29.31
20955;BME280;10636;19.390;-99.256;2023-02-02T05:33:44;78151.41;;;24.09;28.97
20955;BME280;10636;19.390;-99.256;2023-02-02T05:36:12;78147.34;;;24.08;29.13
20955;BME280;10636;19.390;-99.256;2023-02-02T05:38:41;78143.28;;;24.07;29.26
20955;BME280;10636;19.390;-99.256;2023-02-02T05:41:10;78145.88;;;24.05;29.69
20955;BME280;10636;19.390;-99.256;2023-02-02T05:43:39;78149.16;;;24.04;29.65
20955;BME280;10636;19.390;-99.256;2023-02-02T05:46:08;78151.81;;;24.04;29.44
20955;BME280;10636;19.390;-99.256;2023-02-02T05:48:36;78153.22;;;24.05;29.24
20955;BME280;10636;19.390;-99.256;2023-02-02T05:51:11;78159.16;;;24.03;29.12
20955;BME280;10636;19.390;-99.256;2023-02-02T05:53:41;78157.78;;;24.02;29.15
20955;BME280;10636;19.390;-99.256;2023-02-02T05:56:11;78155.03;;;24.00;28.88
20955;BME280;10636;19.390;-99.256;2023-02-02T05:58:41;78149.31;;;23.92;29.50
20955;BME280;10636;19.390;-99.256;2023-02-02T06:01:10;78156.22;;;23.97;28.93
20955;BME280;10636;19.390;-99.256;2023-02-02T06:03:38;78154.25;;;23.97;28.84
20955;BME280;10636;19.390;-99.256;2023-02-02T06:06:08;78153.56;;;23.97;28.76
20955;BME280;10636;19.390;-99.256;2023-02-02T06:08:37;78146.81;;;23.96;29.43
20955;BME280;10636;19.390;-99.256;2023-02-02T06:11:09;78143.97;;;23.92;29.54
20955;BME280;10636;19.390;-99.256;2023-02-02T06:13:39;78149.13;;;23.88;29.04
20955;BME280;10636;19.390;-99.256;2023-02-02T06:16:07;78154.66;;;23.92;29.10
20955;BME280;10636;19.390;-99.256;2023-02-02T06:18:36;78154.66;;;23.92;29.22
20955;BME280;10636;19.390;-99.256;2023-02-02T06:21:05;78162.72;;;23.92;29.33
20955;BME280;10636;19.390;-99.256;2023-02-02T06:23:36;78164.69;;;23.91;29.53
20955;BME280;10636;19.390;-99.256;2023-02-02T06:26:08;78159.94;;;23.90;29.27
20955;BME280;10636;19.390;-99.256;2023-02-02T06:28:37;78163.31;;;23.90;29.01
20955;BME280;10636;19.390;-99.256;2023-02-02T06:31:06;78159.94;;;23.90;29.08
20955;BME280;10636;19.390;-99.256;2023-02-02T06:33:35;78159.84;;;23.88;29.48
20955;BME280;10636;19.390;-99.256;2023-02-02T06:36:05;78159.16;;;23.87;29.15
20955;BME280;10636;19.390;-99.256;2023-02-02T06:38:36;78157.78;;;23.86;29.01
20955;BME280;10636;19.390;-99.256;2023-02-02T06:41:05;78163.13;;;23.86;28.76
20955;BME280;10636;19.390;-99.256;2023-02-02T06:43:33;78157.09;;;23.86;28.70
20955;BME280;10636;19.390;-99.256;2023-02-02T06:46:02;78156.41;;;23.85;28.91
20955;BME280;10636;19.390;-99.256;2023-02-02T06:48:31;78156.91;;;23.82;28.59
20955;BME280;10636;19.390;-99.256;2023-02-02T06:51:00;78170.97;;;23.82;28.83
20955;BME280;10636;19.390;-99.256;2023-02-02T06:53:28;78164.16;;;23.79;28.92
20955;BME280;10636;19.390;-99.256;2023-02-02T06:55:59;78163.47;;;23.79;29.29
20955;BME280;10636;19.390;-99.256;2023-02-02T06:58:29;78162.06;;;23.78;28.91
20955;BME280;10636;19.390;-99.256;2023-02-02T07:01:01;78164.75;;;23.78;28.67
20955;BME280;10636;19.390;-99.256;2023-02-02T07:03:31;78166.06;;;23.77;28.76
20955;BME280;10636;19.390;-99.256;2023-02-02T07:06:10;78163.97;;;23.75;28.56
20955;BME280;10636;19.390;-99.256;2023-02-02T07:08:39;78168.66;;;23.74;29.21
20955;BME280;10636;19.390;-99.256;2023-02-02T07:11:09;78162.00;;;23.76;29.13
20955;BME280;10636;19.390;-99.256;2023-02-02T07:13:38;78164.66;;;23.76;28.56
20955;BME280;10636;19.390;-99.256;2023-02-02T07:16:07;78161.91;;;23.73;28.36
20955;BME280;10636;19.390;-99.256;2023-02-02T07:18:36;78158.53;;;23.73;29.04
20955;BME280;10636;19.390;-99.256;2023-02-02T07:21:05;78157.06;;;23.70;29.29
20955;BME280;10636;19.390;-99.256;2023-02-02T07:23:34;78164.47;;;23.71;28.97
20955;BME280;10636;19.390;-99.256;2023-02-02T07:26:04;78139.56;;;23.53;29.08
20955;BME280;10636;19.390;-99.256;2023-02-02T07:28:34;78161.72;;;23.69;29.22
20955;BME280;10636;19.390;-99.256;2023-02-02T07:31:12;78156.25;;;23.67;29.33
20955;BME280;10636;19.390;-99.256;2023-02-02T07:33:42;78156.25;;;23.67;29.07
20955;BME280;10636;19.390;-99.256;2023-02-02T07:36:14;78160.84;;;23.65;28.46
20955;BME280;10636;19.390;-99.256;2023-02-02T07:38:44;78158.84;;;23.65;28.98
20955;BME280;10636;19.390;-99.256;2023-02-02T07:41:14;78153.44;;;23.63;28.59
20955;BME280;10636;19.390;-99.256;2023-02-02T07:43:45;78160.78;;;23.63;28.45
20955;BME280;10636;19.390;-99.256;2023-02-02T07:46:15;78150.44;;;23.57;28.63
20955;BME280;10636;19.390;-99.256;2023-02-02T07:48:44;78155.97;;;23.61;28.82
20955;BME280;10636;19.390;-99.256;2023-02-02T07:51:13;78157.88;;;23.59;28.15
20955;BME280;10636;19.390;-99.256;2023-02-02T07:53:43;78157.88;;;23.59;28.00
20955;BME280;10636;19.390;-99.256;2023-02-02T07:56:14;78159.75;;;23.56;28.48
20955;BME280;10636;19.390;-99.256;2023-02-02T07:58:44;78159.69;;;23.54;28.81
20955;BME280;10636;19.390;-99.256;2023-02-02T08:01:14;78145.16;;;23.43;28.09
20955;BME280;10636;19.390;-99.256;2023-02-02T08:03:43;78145.84;;;23.44;28.08
20955;BME280;10636;19.390;-99.256;2023-02-02T08:06:14;78151.47;;;23.50;28.25
20955;BME280;10636;19.390;-99.256;2023-02-02T08:08:43;78146.03;;;23.48;27.96
20955;BME280;10636;19.390;-99.256;2023-02-02T08:11:12;78143.84;;;23.44;28.31
20955;BME280;10636;19.390;-99.256;2023-02-02T08:13:43;78143.16;;;23.44;27.85
20955;BME280;10636;19.390;-99.256;2023-02-02T08:16:12;78139.72;;;23.41;27.98
20955;BME280;10636;19.390;-99.256;2023-02-02T08:18:40;78141.78;;;23.43;27.75
20955;BME280;10636;19.390;-99.256;2023-02-02T08:21:09;78145.75;;;23.42;28.13
20955;BME280;10636;19.390;-99.256;2023-02-02T08:23:39;78137.53;;;23.38;28.27
20955;BME280;10636;19.390;-99.256;2023-02-02T08:26:10;78132.94;;;23.40;28.54
20955;BME280;10636;19.390;-99.256;2023-02-02T08:28:40;78140.41;;;23.42;28.35
20955;BME280;10636;19.390;-99.256;2023-02-02T08:31:14;78133.63;;;23.41;27.89
20955;BME280;10636;19.390;-99.256;2023-02-02T08:33:42;78134.25;;;23.39;28.41
20955;BME280;10636;19.390;-99.256;2023-02-02T08:36:11;78132.06;;;23.36;28.35
20955;BME280;10636;19.390;-99.256;2023-02-02T08:38:41;78126.63;;;23.34;27.82
20955;BME280;10636;19.390;-99.256;2023-02-02T08:41:10;78117.91;;;23.33;28.34
20955;BME280;10636;19.390;-99.256;2023-02-02T08:43:40;78121.97;;;23.34;27.65
20955;BME280;10636;19.390;-99.256;2023-02-02T08:46:11;78119.91;;;23.33;28.46
20955;BME280;10636;19.390;-99.256;2023-02-02T08:48:40;78122.59;;;23.33;27.75
20955;BME280;10636;19.390;-99.256;2023-02-02T08:51:10;78117.16;;;23.31;28.41
20955;BME280;10636;19.390;-99.256;2023-02-02T08:53:40;78122.50;;;23.31;27.80
20955;BME280;10636;19.390;-99.256;2023-02-02T08:56:10;78119.09;;;23.30;28.24
20955;BME280;10636;19.390;-99.256;2023-02-02T08:58:43;78114.97;;;23.27;27.81
20955;BME280;10636;19.390;-99.256;2023-02-02T09:01:15;78106.16;;;23.25;28.12
20955;BME280;10636;19.390;-99.256;2023-02-02T09:03:44;78114.47;;;23.31;27.56
20955;BME280;10636;19.390;-99.256;2023-02-02T09:06:14;78117.72;;;23.29;28.46
20955;BME280;10636;19.390;-99.256;2023-02-02T09:08:43;78107.63;;;23.28;27.78
20955;BME280;10636;19.390;-99.256;2023-02-02T09:11:13;78111.50;;;23.25;27.93
20955;BME280;10636;19.390;-99.256;2023-02-02T09:13:44;78077.78;;;23.04;28.20
20955;BME280;10636;19.390;-99.256;2023-02-02T09:16:16;78108.81;;;23.25;28.12
20955;BME280;10636;19.390;-99.256;2023-02-02T09:18:45;78117.47;;;23.23;28.35
20955;BME280;10636;19.390;-99.256;2023-02-02T09:21:15;78105.97;;;23.20;27.70
20955;BME280;10636;19.390;-99.256;2023-02-02T09:23:45;78105.97;;;23.20;27.71
20955;BME280;10636;19.390;-99.256;2023-02-02T09:26:15;78096.66;;;23.21;27.55
20955;BME280;10636;19.390;-99.256;2023-02-02T09:28:47;78095.97;;;23.21;27.78
20955;BME280;10636;19.390;-99.256;2023-02-02T09:31:18;78105.28;;;23.20;28.32
20955;BME280;10636;19.390;-99.256;2023-02-02T09:33:47;78097.16;;;23.18;28.04
20955;BME280;10636;19.390;-99.256;2023-02-02T09:36:22;78098.53;;;23.19;28.48
20955;BME280;10636;19.390;-99.256;2023-02-02T09:38:52;78097.84;;;23.18;28.42
20955;BME280;10636;19.390;-99.256;2023-02-02T09:41:40;78097.16;;;23.18;27.86
20955;BME280;10636;19.390;-99.256;2023-02-02T09:44:26;78095.78;;;23.17;28.10
20955;BME280;10636;19.390;-99.256;2023-02-02T09:47:09;78094.97;;;23.14;28.09
20955;BME280;10636;19.390;-99.256;2023-02-02T09:49:51;78089.63;;;23.14;27.78
20955;BME280;10636;19.390;-99.256;2023-02-02T09:52:25;78084.13;;;23.10;27.85
20955;BME280;10636;19.390;-99.256;2023-02-02T09:54:59;78088.25;;;23.13;28.47
20955;BME280;10636;19.390;-99.256;2023-02-02T09:57:36;78093.53;;;23.11;27.84
20955;BME280;10636;19.390;-99.256;2023-02-02T10:00:06;78093.53;;;23.11;27.74
20955;BME280;10636;19.390;-99.256;2023-02-02T10:02:45;78089.47;;;23.10;27.93
20955;BME280;10636;19.390;-99.256;2023-02-02T10:05:18;78092.16;;;23.10;28.11
20955;BME280;10636;19.390;-99.256;2023-02-02T10:07:52;78099.38;;;23.08;28.24
20955;BME280;10636;19.390;-99.256;2023-02-02T10:10:24;78097.31;;;23.06;27.85
20955;BME280;10636;19.390;-99.256;2023-02-02T10:12:58;78098.50;;;23.03;27.93
20955;BME280;10636;19.390;-99.256;2023-02-02T10:15:34;78099.88;;;23.04;28.30
20955;BME280;10636;19.390;-99.256;2023-02-02T10:18:10;78094.53;;;23.04;28.45
20955;BME280;10636;19.390;-99.256;2023-02-02T10:20:45;78097.19;;;23.04;28.33
20955;BME280;10636;19.390;-99.256;2023-02-02T10:23:22;78101.84;;;23.04;27.95
20955;BME280;10636;19.390;-99.256;2023-02-02T10:25:56;78102.47;;;23.02;27.99
20955;BME280;10636;19.390;-99.256;2023-02-02T10:28:40;78103.69;;;22.99;27.75
20955;BME280;10636;19.390;-99.256;2023-02-02T10:31:17;78104.94;;;22.98;28.02
20955;BME280;10636;19.390;-99.256;2023-02-02T10:33:59;78112.88;;;22.96;28.11
20955;BME280;10636;19.390;-99.256;2023-02-02T10:36:36;78108.16;;;22.94;27.84
20955;BME280;10636;19.390;-99.256;2023-02-02T10:39:17;78110.13;;;22.94;27.73
20955;BME280;10636;19.390;-99.256;2023-02-02T10:41:57;78104.69;;;22.92;28.35
20955;BME280;10636;19.390;-99.256;2023-02-02T10:44:32;78112.09;;;22.93;28.38
20955;BME280;10636;19.390;-99.256;2023-02-02T10:47:08;78107.34;;;22.92;28.12
20955;BME280;10636;19.390;-99.256;2023-02-02T10:49:40;78114.00;;;22.91;27.87
20955;BME280;10636;19.390;-99.256;2023-02-02T10:52:15;78103.97;;;22.91;28.36
20955;BME280;10636;19.390;-99.256;2023-02-02T10:54:49;78107.94;;;22.90;28.23
20955;BME280;10636;19.390;-99.256;2023-02-02T10:57:31;78109.13;;;22.87;28.17
20955;BME280;10636;19.390;-99.256;2023-02-02T11:00:07;78110.63;;;22.90;28.30
20955;BME280;10636;19.390;-99.256;2023-02-02T11:02:41;78115.19;;;22.88;28.22
20955;BME280;10636;19.390;-99.256;2023-02-02T11:05:19;78111.22;;;22.89;28.50
20955;BME280;10636;19.390;-99.256;2023-02-02T11:08:16;78112.50;;;22.88;28.08
20955;BME280;10636;19.390;-99.256;2023-02-02T11:10:46;78111.09;;;22.87;28.70
20955;BME280;10636;19.390;-99.256;2023-02-02T11:13:26;78107.03;;;22.86;28.64
20955;BME280;10636;19.390;-99.256;2023-02-02T11:16:23;78112.31;;;22.84;28.49
20955;BME280;10636;19.390;-99.256;2023-02-02T11:18:52;78113.56;;;22.83;27.67
20955;BME280;10636;19.390;-99.256;2023-02-02T11:21:24;78113.56;;;22.83;27.92
20955;BME280;10636;19.390;-99.256;2023-02-02T11:23:55;78112.88;;;22.82;28.35
20955;BME280;10636;19.390;-99.256;2023-02-02T11:26:25;78114.09;;;22.79;27.87
20955;BME280;10636;19.390;-99.256;2023-02-02T11:28:54;78115.97;;;22.77;27.94
20955;BME280;10636;19.390;-99.256;2023-02-02T11:31:34;78102.31;;;22.70;28.25
20955;BME280;10636;19.390;-99.256;2023-02-02T11:34:24;78114.59;;;22.76;28.10
20955;BME280;10636;19.390;-99.256;2023-02-02T11:37:11;78111.16;;;22.73;28.39
20955;BME280;10636;19.390;-99.256;2023-02-02T11:39:40;78117.88;;;22.74;28.58
20955;BME280;10636;19.390;-99.256;2023-02-02T11:42:13;78110.94;;;22.69;28.40
20955;BME280;10636;19.390;-99.256;2023-02-02T11:44:47;78109.25;;;22.76;28.35
20955;BME280;10636;19.390;-99.256;2023-02-02T11:47:23;78117.19;;;22.74;28.59
20955;BME280;10636;19.390;-99.256;2023-02-02T11:49:54;78116.50;;;22.73;28.59
20955;BME280;10636;19.390;-99.256;2023-02-02T11:52:26;78122.53;;;22.74;28.57
20955;BME280;10636;19.390;-99.256;2023-02-02T11:54:57;78129.25;;;22.75;28.81
20955;BME280;10636;19.390;-99.256;2023-02-02T11:57:28;78119.84;;;22.74;28.11
20955;BME280;10636;19.390;-99.256;2023-02-02T12:00:15;78122.53;;;22.74;28.50
20955;BME280;10636;19.390;-99.256;2023-02-02T12:02:45;78126.66;;;22.77;28.48
20955;BME280;10636;19.390;-99.256;2023-02-02T12:05:35;78127.28;;;22.75;28.76
20955;BME280;10636;19.390;-99.256;2023-02-02T12:08:08;78128.56;;;22.74;29.19
20955;BME280;10636;19.390;-99.256;2023-02-02T12:10:41;78137.28;;;22.75;28.88
20955;BME280;10636;19.390;-99.256;2023-02-02T12:13:18;78131.13;;;22.72;28.73
20955;BME280;10636;19.390;-99.256;2023-02-02T12:15:59;78137.16;;;22.73;29.16
20955;BME280;10636;19.390;-99.256;2023-02-02T12:18:38;78143.81;;;22.71;28.70
20955;BME280;10636;19.390;-99.256;2023-02-02T12:21:15;78147.78;;;22.70;29.24
20955;BME280;10636;19.390;-99.256;2023-02-02T12:23:58;78145.69;;;22.69;28.68
20955;BME280;10636;19.390;-99.256;2023-02-02T12:26:33;78141.66;;;22.68;28.46
20955;BME280;10636;19.390;-99.256;2023-02-02T12:32:26;78155.41;;;22.62;28.18
20955;BME280;10636;19.390;-99.256;2023-02-02T12:35:10;78158.78;;;22.63;28.32
20955;BME280;10636;19.390;-99.256;2023-02-02T12:37:53;78166.19;;;22.64;28.63
20955;BME280;10636;19.390;-99.256;2023-02-02T12:40:45;78164.03;;;22.61;27.56
20955;BME280;10636;19.390;-99.256;2023-02-02T12:43:36;78168.47;;;22.56;28.15
20955;BME280;10636;19.390;-99.256;2023-02-02T12:46:26;78169.56;;;22.51;27.72
20955;BME280;10636;19.390;-99.256;2023-02-02T12:49:16;78168.69;;;22.47;27.96
20955;BME280;10636;19.390;-99.256;2023-02-02T12:51:59;78173.94;;;22.44;28.08
20955;BME280;10636;19.390;-99.256;2023-02-02T12:54:48;78173.94;;;22.44;27.29
20955;BME280;10636;19.390;-99.256;2023-02-02T12:57:24;78173.72;;;22.40;27.72
20955;BME280;10636;19.390;-99.256;2023-02-02T13:03:30;78183.53;;;22.36;27.51
20955;BME280;10636;19.390;-99.256;2023-02-02T13:09:14;78186.00;;;22.32;27.96
20955;BME280;10636;19.390;-99.256;2023-02-02T13:11:49;78198.00;;;22.31;27.33
20955;BME280;10636;19.390;-99.256;2023-02-02T13:14:25;78193.22;;;22.29;27.90
20955;BME280;10636;19.390;-99.256;2023-02-02T13:16:59;78195.09;;;22.27;27.26
20955;BME280;10636;19.390;-99.256;2023-02-02T13:19:36;78186.88;;;22.23;27.93
20955;BME280;10636;19.390;-99.256;2023-02-02T13:22:09;78202.91;;;22.23;27.41
20955;BME280;10636;19.390;-99.256;2023-02-02T13:24:43;78207.56;;;22.22;27.48
20955;BME280;10636;19.390;-99.256;2023-02-02T13:27:17;78204.81;;;22.20;27.30